createdAt,value
2022-09-15T00:00:12.376Z,98760.22
2022-09-15T00:02:40.847Z,98736.72
2022-09-15T00:05:09.711Z,98729.25
2022-09-15T00:07:38.547Z,98702.41
2022-09-15T00:10:07.949Z,98689.22
2022-09-15T00:12:36.685Z,98667.91
2022-09-15T00:15:06.133Z,98661.59
2022-09-15T00:17:34.901Z,98662.88
2022-09-15T00:20:06.293Z,98678.09
2022-09-15T00:22:35.734Z,98682.94
2022-09-15T00:25:05.074Z,98697.37
2022-09-15T00:27:33.801Z,98700.59
2022-09-15T00:30:03.082Z,98707.59
2022-09-15T00:32:33.951Z,98728.91
2022-09-15T00:35:02.860Z,98729.94
2022-09-15T00:37:31.620Z,98748.84
2022-09-15T00:40:00.298Z,98753.88
2022-09-15T00:42:29.495Z,98775.19
2022-09-15T00:45:02.032Z,98769.84
2022-09-15T00:47:38.774Z,98779.69
2022-09-15T00:50:13.206Z,98772.72
2022-09-15T00:52:49.704Z,98783.75
2022-09-15T00:55:23.194Z,98784.06
2022-09-15T00:58:06.852Z,98786.47
2022-09-15T01:00:35.797Z,98777.41
2022-09-15T01:03:04.635Z,98780.78
2022-09-15T01:05:40.877Z,98784.78
2022-09-15T01:08:27.734Z,98781.94
2022-09-15T01:10:56.815Z,98786.47
2022-09-15T01:13:25.543Z,98793.75
2022-09-15T01:15:59.850Z,98795.81
2022-09-15T01:18:31.677Z,98797.97
2022-09-15T01:21:09.411Z,98795.03
2022-09-15T01:24:15.365Z,98798.69
2022-09-15T01:27:41.031Z,98800.31
2022-09-15T01:30:16.888Z,98810.75
2022-09-15T01:33:06.951Z,98811.81
2022-09-15T01:35:50.914Z,98805.25
2022-09-15T01:39:01.190Z,98808.34
2022-09-15T01:41:46.910Z,98807.56
2022-09-15T01:44:21.822Z,98813.75
2022-09-15T01:46:57.171Z,98812.37
2022-09-15T01:49:30.867Z,98818.91
2022-09-15T01:52:00.264Z,98813.19
2022-09-15T01:54:35.977Z,98807.31
2022-09-15T01:57:04.912Z,98812.16
2022-09-15T01:59:34.722Z,98803.19
2022-09-15T02:02:10.136Z,98799.63
2022-09-15T02:04:53.013Z,98796.87
2022-09-15T02:07:45.583Z,98796.25
2022-09-15T02:10:22.067Z,98794.88
2022-09-15T02:13:00.756Z,98790.44
2022-09-15T02:15:36.942Z,98790.84
2022-09-15T02:18:08.759Z,98794.78
2022-09-15T02:20:38.951Z,98790.03
2022-09-15T02:23:29.057Z,98787.22
2022-09-15T02:26:05.022Z,98779.63
2022-09-15T02:28:37.185Z,98786.03
2022-09-15T02:31:09.472Z,98787.63
2022-09-15T02:33:44.568Z,98796.09
2022-09-15T02:36:18.241Z,98793.91
2022-09-15T02:38:55.821Z,98790.44
2022-09-15T02:41:24.521Z,98796.97
2022-09-15T02:43:53.003Z,98800.41
2022-09-15T02:46:22.852Z,98807.06
2022-09-15T02:48:51.718Z,98795.81
2022-09-15T02:51:20.288Z,98800.19
2022-09-15T02:53:49.399Z,98804.53
2022-09-15T02:56:18.278Z,98800.41
2022-09-15T02:58:47.042Z,98805.22
2022-09-15T03:01:16.118Z,98798.25
2022-09-15T03:03:46.171Z,98794.81
2022-09-15T03:06:17.643Z,98783.03
2022-09-15T03:08:52.100Z,98784.88
2022-09-15T03:11:23.100Z,98782.22
2022-09-15T03:13:56.868Z,98778.91
2022-09-15T03:16:26.383Z,98777.78
2022-09-15T03:18:56.467Z,98771.59
2022-09-15T03:21:26.089Z,98785.56
2022-09-15T03:23:55.710Z,98797.97
2022-09-15T03:26:24.435Z,98792.69
2022-09-15T03:28:53.368Z,98792.44
2022-09-15T03:31:22.629Z,98805.28
2022-09-15T03:33:51.312Z,98803.34
2022-09-15T03:36:19.695Z,98803.66
2022-09-15T03:38:50.578Z,98804.44
2022-09-15T03:41:19.080Z,98804.91
2022-09-15T03:43:47.825Z,98803.66
2022-09-15T03:46:17.045Z,98786.59
2022-09-15T03:48:47.236Z,98789.72
2022-09-15T03:51:16.293Z,98787.63
2022-09-15T03:53:48.083Z,98792.03
2022-09-15T03:56:31.467Z,98797.97
2022-09-15T03:59:04.826Z,98792.69
2022-09-15T04:01:33.956Z,98797.63
2022-09-15T04:04:02.974Z,98795.00
2022-09-15T04:06:31.648Z,98795.44
2022-09-15T04:09:02.701Z,98797.50
2022-09-15T04:11:32.330Z,98803.69
2022-09-15T04:14:00.767Z,98809.16
2022-09-15T04:16:29.473Z,98803.03
2022-09-15T04:18:58.352Z,98814.97
2022-09-15T04:21:27.043Z,98808.19
2022-09-15T04:23:55.609Z,98806.22
2022-09-15T04:26:31.520Z,98805.22
2022-09-15T04:29:04.330Z,98801.75
2022-09-15T04:31:34.498Z,98806.22
2022-09-15T04:34:03.023Z,98807.69
2022-09-15T04:36:31.746Z,98814.66
2022-09-15T04:39:00.405Z,98820.56
2022-09-15T04:41:29.064Z,98814.63
2022-09-15T04:43:57.557Z,98808.09
2022-09-15T04:46:26.768Z,98799.50
2022-09-15T04:48:55.637Z,98809.63
2022-09-15T04:51:25.001Z,98818.31
2022-09-15T04:53:53.839Z,98814.66
2022-09-15T04:56:25.575Z,98818.53
2022-09-15T04:59:03.445Z,98820.59
2022-09-15T05:01:35.286Z,98826.59
2022-09-15T05:04:04.933Z,98832.66
2022-09-15T05:06:34.959Z,98822.81
2022-09-15T05:09:09.959Z,98822.34
2022-09-15T05:11:38.815Z,98834.87
2022-09-15T05:14:08.439Z,98832.81
2022-09-15T05:16:37.380Z,98834.09
2022-09-15T05:19:06.297Z,98829.97
2022-09-15T05:21:35.265Z,98828.50
2022-09-15T05:24:03.876Z,98830.56
2022-09-15T05:26:32.565Z,98828.59
2022-09-15T05:29:01.262Z,98846.81
2022-09-15T05:31:31.907Z,98846.03
2022-09-15T05:34:03.711Z,98842.59
2022-09-15T05:36:32.624Z,98847.88
2022-09-15T05:39:01.933Z,98859.47
2022-09-15T05:41:30.697Z,98864.03
2022-09-15T05:43:59.216Z,98864.41
2022-09-15T05:46:29.210Z,98863.72
2022-09-15T05:48:59.067Z,98871.41
2022-09-15T05:51:28.192Z,98880.28
2022-09-15T05:53:56.864Z,98883.72
2022-09-15T05:56:25.222Z,98881.00
2022-09-15T05:58:54.029Z,98878.72
2022-09-15T06:01:27.891Z,98884.78
2022-09-15T06:03:57.854Z,98879.41
2022-09-15T06:06:26.789Z,98871.72
2022-09-15T06:08:58.960Z,98869.28
2022-09-15T06:11:30.647Z,98870.00
2022-09-15T06:14:04.239Z,98860.34
2022-09-15T06:16:34.754Z,98863.06
2022-09-15T06:19:03.796Z,98860.09
2022-09-15T06:21:33.460Z,98865.94
2022-09-15T06:24:07.118Z,98872.47
2022-09-15T06:26:35.820Z,98884.66
2022-09-15T06:29:05.402Z,98882.38
2022-09-15T06:31:34.400Z,98892.00
2022-09-15T06:34:04.090Z,98892.34
2022-09-15T06:36:33.133Z,98893.81
2022-09-15T06:39:01.564Z,98893.00
2022-09-15T06:41:47.022Z,98897.56
2022-09-15T06:44:20.387Z,98896.78
2022-09-15T06:46:49.380Z,98899.75
2022-09-15T06:49:17.919Z,98903.16
2022-09-15T06:51:46.729Z,98913.41
2022-09-15T06:54:16.212Z,98915.47
2022-09-15T06:56:45.055Z,98906.47
2022-09-15T06:59:15.216Z,98904.50
2022-09-15T07:01:44.306Z,98911.37
2022-09-15T07:04:12.470Z,98924.69
2022-09-15T07:06:41.084Z,98926.78
2022-09-15T07:09:11.104Z,98933.34
2022-09-15T07:11:39.563Z,98930.31
2022-09-15T07:14:08.410Z,98935.47
2022-09-15T07:16:37.181Z,98933.84
2022-09-15T07:19:06.179Z,98950.69
2022-09-15T07:21:35.518Z,98958.34
2022-09-15T07:24:07.230Z,98955.22
2022-09-15T07:26:36.392Z,98955.56
2022-09-15T07:29:07.062Z,98949.09
2022-09-15T07:31:38.029Z,98951.44
2022-09-15T07:34:07.722Z,98948.44
2022-09-15T07:36:36.734Z,98949.31
2022-09-15T07:39:06.128Z,98947.41
2022-09-15T07:41:34.729Z,98939.03
2022-09-15T07:44:03.957Z,98948.59
2022-09-15T07:46:33.282Z,98950.16
2022-09-15T07:49:03.514Z,98956.97
2022-09-15T07:51:32.254Z,98957.31
2022-09-15T07:54:00.531Z,98956.31
2022-09-15T07:56:29.150Z,98951.88
2022-09-15T07:58:58.298Z,98954.34
2022-09-15T08:01:26.764Z,98950.72
2022-09-15T08:03:56.327Z,98955.19
2022-09-15T08:06:26.756Z,98950.22
2022-09-15T08:09:00.437Z,98956.66
2022-09-15T08:11:30.109Z,98957.84
2022-09-15T08:14:03.031Z,98960.41
2022-09-15T08:16:31.890Z,98951.50
2022-09-15T08:19:00.911Z,98945.78
2022-09-15T08:21:29.353Z,98941.13
2022-09-15T08:24:01.388Z,98950.13
2022-09-15T08:26:31.016Z,98961.75
2022-09-15T08:29:00.704Z,98962.06
2022-09-15T08:31:29.326Z,98952.66
2022-09-15T08:33:58.374Z,98967.91
2022-09-15T08:36:28.061Z,98947.41
2022-09-15T08:38:57.065Z,98946.31
2022-09-15T08:41:39.021Z,98942.31
2022-09-15T08:44:08.550Z,98931.12
2022-09-15T08:47:01.312Z,98939.94
2022-09-15T08:49:51.050Z,98928.31
2022-09-15T08:52:32.903Z,98917.03
2022-09-15T08:55:07.253Z,98912.53
2022-09-15T08:57:36.020Z,98916.78
2022-09-15T09:00:05.219Z,98919.09
2022-09-15T09:02:56.251Z,98925.84
2022-09-15T09:05:29.430Z,98907.16
2022-09-15T09:08:16.653Z,98891.50
2022-09-15T09:11:17.213Z,98887.66
2022-09-15T09:14:20.929Z,98896.72
2022-09-15T09:17:23.070Z,98887.44
2022-09-15T09:20:15.375Z,98877.19
2022-09-15T09:22:50.061Z,98884.25
2022-09-15T09:25:27.670Z,98884.00
2022-09-15T09:27:58.435Z,98889.75
2022-09-15T09:30:33.340Z,98874.00
2022-09-15T09:33:30.617Z,98861.94
2022-09-15T09:36:01.419Z,98859.50
2022-09-15T09:38:43.239Z,98863.75
2022-09-15T09:41:15.558Z,98871.69
2022-09-15T09:43:47.123Z,98862.94
2022-09-15T09:46:18.117Z,98863.28
2022-09-15T09:48:58.411Z,98860.34
2022-09-15T09:51:37.070Z,98852.09
2022-09-15T09:54:18.075Z,98844.28
2022-09-15T09:56:51.336Z,98842.19
2022-09-15T09:59:41.050Z,98852.34
2022-09-15T10:02:16.125Z,98846.16
2022-09-15T10:04:53.819Z,98846.19
2022-09-15T10:07:26.581Z,98842.19
2022-09-15T10:10:00.563Z,98826.81
2022-09-15T10:12:40.504Z,98834.91
2022-09-15T10:15:23.790Z,98823.59
2022-09-15T10:17:55.596Z,98815.69
2022-09-15T10:20:46.287Z,98812.03
2022-09-15T10:23:17.772Z,98812.09
2022-09-15T10:26:01.843Z,98802.91
2022-09-15T10:28:30.822Z,98801.44
2022-09-15T10:31:03.934Z,98795.69
2022-09-15T10:33:42.015Z,98797.88
2022-09-15T10:36:22.787Z,98799.03
2022-09-15T10:39:24.661Z,98802.78
2022-09-15T10:42:36.783Z,98793.38
2022-09-15T10:45:33.905Z,98801.84
2022-09-15T10:48:23.711Z,98794.78
2022-09-15T10:51:16.326Z,98802.50
2022-09-15T10:53:47.941Z,98810.34
2022-09-15T10:56:29.657Z,98806.50
2022-09-15T10:59:49.399Z,98804.28
2022-09-15T11:02:21.191Z,98807.56
2022-09-15T11:05:04.577Z,98800.91
2022-09-15T11:07:39.999Z,98812.97
2022-09-15T11:10:35.441Z,98804.16
2022-09-15T11:13:20.875Z,98795.44
2022-09-15T11:15:49.660Z,98792.81
2022-09-15T11:18:30.045Z,98790.25
2022-09-15T11:21:36.746Z,98800.41
2022-09-15T11:24:22.585Z,98794.31
2022-09-15T11:27:19.155Z,98797.81
2022-09-15T11:30:14.496Z,98788.19
2022-09-15T11:32:47.981Z,98799.44
2022-09-15T11:35:44.575Z,98800.50
2022-09-15T11:38:35.774Z,98803.16
2022-09-15T11:41:34.758Z,98805.59
2022-09-15T11:44:34.397Z,98792.88
2022-09-15T11:47:25.617Z,98788.87
2022-09-15T11:50:03.604Z,98768.63
2022-09-15T11:53:10.157Z,98762.72
2022-09-15T11:56:01.045Z,98748.06
2022-09-15T11:58:44.762Z,98743.25
2022-09-15T12:01:21.503Z,98731.81
2022-09-15T12:04:02.066Z,98730.16
2022-09-15T12:06:45.547Z,98740.53
2022-09-15T12:09:17.636Z,98748.78
2022-09-15T12:11:53.459Z,98750.94
2022-09-15T12:14:37.302Z,98745.13
2022-09-15T12:17:08.238Z,98742.78
2022-09-15T12:20:02.478Z,98743.06
2022-09-15T12:22:49.663Z,98743.91
2022-09-15T12:25:25.407Z,98742.56
2022-09-15T12:28:35.147Z,98730.34
2022-09-15T12:31:26.065Z,98751.22
2022-09-15T12:34:04.257Z,98754.34
2022-09-15T12:36:47.147Z,98752.66
2022-09-15T12:39:30.281Z,98764.91
2022-09-15T12:42:28.138Z,98762.03
2022-09-15T12:45:07.174Z,98767.31
2022-09-15T12:47:51.037Z,98763.50
2022-09-15T12:50:19.520Z,98764.25
2022-09-15T12:52:57.361Z,98758.78
2022-09-15T12:55:31.200Z,98770.84
2022-09-15T12:58:10.732Z,98777.50
2022-09-15T13:01:06.815Z,98769.62
2022-09-15T13:03:41.936Z,98754.47
2022-09-15T13:06:10.349Z,98746.56
2022-09-15T13:08:48.595Z,98764.41
2022-09-15T13:11:40.128Z,98782.09
2022-09-15T13:14:16.729Z,98770.06
2022-09-15T13:17:06.982Z,98762.34
2022-09-15T13:19:41.683Z,98747.94
2022-09-15T13:22:30.178Z,98728.53
2022-09-15T13:25:17.914Z,98710.41
2022-09-15T13:27:52.496Z,98712.69
2022-09-15T13:30:24.328Z,98730.06
2022-09-15T13:33:24.325Z,98728.41
2022-09-15T13:39:40.297Z,98727.66
2022-09-15T13:42:18.626Z,98729.13
2022-09-15T13:44:52.893Z,98724.50
2022-09-15T13:47:40.423Z,98724.19
2022-09-15T13:50:34.109Z,98721.66
2022-09-15T13:53:25.641Z,98727.97
2022-09-15T13:55:57.307Z,98733.88
2022-09-15T14:01:17.257Z,98743.22
2022-09-15T14:03:53.951Z,98752.81
2022-09-15T14:06:30.350Z,98740.47
2022-09-15T14:09:04.529Z,98762.44
2022-09-15T14:11:35.281Z,98765.78
2022-09-15T14:14:22.136Z,98769.25
2022-09-15T14:16:50.846Z,98748.31
2022-09-15T14:19:33.706Z,98752.88
2022-09-15T14:22:26.261Z,98746.97
2022-09-15T14:24:57.778Z,98757.69
2022-09-15T14:27:29.427Z,98757.34
2022-09-15T14:30:03.008Z,98757.81
2022-09-15T14:32:39.048Z,98765.28
2022-09-15T14:35:14.955Z,98762.81
2022-09-15T14:37:54.378Z,98733.84
2022-09-15T14:40:36.400Z,98727.56
2022-09-15T14:43:25.144Z,98729.19
2022-09-15T14:46:01.162Z,98728.22
2022-09-15T14:48:34.236Z,98730.66
2022-09-15T14:51:17.565Z,98754.53
2022-09-15T14:53:49.358Z,98760.16
2022-09-15T14:56:23.030Z,98767.03
2022-09-15T14:58:56.108Z,98771.25
2022-09-15T15:01:56.124Z,98774.22
2022-09-15T15:04:30.783Z,98774.56
2022-09-15T15:07:26.637Z,98772.75
2022-09-15T15:10:05.820Z,98775.47
2022-09-15T15:12:39.930Z,98780.38
2022-09-15T15:15:12.142Z,98767.19
2022-09-15T15:17:46.770Z,98738.53
2022-09-15T15:20:27.198Z,98716.75
2022-09-15T15:23:08.522Z,98703.44
2022-09-15T15:25:37.586Z,98680.28
2022-09-15T15:28:06.648Z,98691.88
2022-09-15T15:30:44.930Z,98731.41
2022-09-15T15:33:28.039Z,98742.87
2022-09-15T15:36:05.845Z,98729.09
2022-09-15T15:38:36.995Z,98726.00
2022-09-15T15:41:08.197Z,98736.53
2022-09-15T15:43:37.653Z,98731.00
2022-09-15T15:46:06.737Z,98706.63
2022-09-15T15:48:38.374Z,98703.16
2022-09-15T15:51:09.353Z,98708.66
2022-09-15T15:53:37.669Z,98697.91
2022-09-15T15:56:08.266Z,98696.06
2022-09-15T15:58:36.826Z,98708.69
2022-09-15T16:01:05.088Z,98712.03
2022-09-15T16:03:34.023Z,98700.13
2022-09-15T16:06:03.040Z,98683.28
2022-09-15T16:08:34.539Z,98685.56
2022-09-15T16:11:04.062Z,98699.53
2022-09-15T16:13:32.135Z,98713.87
2022-09-15T16:16:01.344Z,98699.31
2022-09-15T16:18:29.951Z,98698.16
2022-09-15T16:20:58.096Z,98705.72
2022-09-15T16:23:26.169Z,98699.56
2022-09-15T16:26:03.597Z,98713.66
2022-09-15T16:28:32.219Z,98704.16
2022-09-15T16:31:00.792Z,98710.12
2022-09-15T16:33:33.449Z,98714.00
2022-09-15T16:36:09.030Z,98713.31
2022-09-15T16:38:37.229Z,98712.37
2022-09-15T16:41:16.567Z,98716.06
2022-09-15T16:43:46.220Z,98713.19
2022-09-15T16:46:16.044Z,98712.94
2022-09-15T16:48:47.244Z,98709.97
2022-09-15T16:51:28.404Z,98715.59
2022-09-15T16:53:57.913Z,98703.91
2022-09-15T16:56:27.062Z,98704.81
2022-09-15T16:59:00.150Z,98711.09
2022-09-15T17:01:29.249Z,98718.78
2022-09-15T17:03:57.793Z,98725.31
2022-09-15T17:06:26.078Z,98735.06
2022-09-15T17:08:55.898Z,98728.63
2022-09-15T17:11:25.516Z,98729.88
2022-09-15T17:13:53.784Z,98719.66
2022-09-15T17:16:22.593Z,98722.03
2022-09-15T17:18:50.790Z,98725.53
2022-09-15T17:21:19.798Z,98722.09
2022-09-15T17:23:52.812Z,98715.31
2022-09-15T17:26:27.632Z,98709.47
2022-09-15T17:29:00.074Z,98710.41
2022-09-15T17:31:28.323Z,98716.69
2022-09-15T17:33:56.461Z,98708.50
2022-09-15T17:36:26.323Z,98707.00
2022-09-15T17:38:54.394Z,98706.00
2022-09-15T17:41:22.861Z,98693.38
2022-09-15T17:43:52.102Z,98695.00
2022-09-15T17:46:21.082Z,98705.03
2022-09-15T17:48:49.295Z,98694.50
2022-09-15T17:51:20.974Z,98702.69
2022-09-15T17:53:49.412Z,98704.09
2022-09-15T17:56:17.946Z,98702.34
2022-09-15T17:58:46.241Z,98706.31
2022-09-15T18:01:15.380Z,98707.03
2022-09-15T18:03:45.129Z,98713.25
2022-09-15T18:06:16.935Z,98719.63
2022-09-15T18:08:45.604Z,98713.72
2022-09-15T18:11:15.384Z,98716.75
2022-09-15T18:13:43.846Z,98703.41
2022-09-15T18:16:14.078Z,98704.87
2022-09-15T18:18:42.962Z,98691.91
2022-09-15T18:21:24.809Z,98708.31
2022-09-15T18:23:53.382Z,98710.56
2022-09-15T18:26:26.373Z,98702.81
2022-09-15T18:28:55.554Z,98710.56
2022-09-15T18:31:24.254Z,98691.72
2022-09-15T18:33:52.503Z,98704.87
2022-09-15T18:36:21.039Z,98702.44
2022-09-15T18:38:49.615Z,98707.34
2022-09-15T18:41:17.686Z,98703.03
2022-09-15T18:43:49.250Z,98710.72
2022-09-15T18:46:18.364Z,98715.28
2022-09-15T18:48:46.768Z,98702.12
2022-09-15T18:51:24.137Z,98711.31
2022-09-15T18:53:57.571Z,98709.53
2022-09-15T18:56:25.701Z,98717.28
2022-09-15T18:58:54.759Z,98726.44
2022-09-15T19:01:23.405Z,98736.16
2022-09-15T19:03:55.389Z,98719.03
2022-09-15T19:06:23.990Z,98735.84
2022-09-15T19:08:52.297Z,98730.66
2022-09-15T19:11:20.758Z,98737.38
2022-09-15T19:13:49.323Z,98743.03
2022-09-15T19:16:22.899Z,98760.84
2022-09-15T19:18:56.784Z,98759.31
2022-09-15T19:21:27.347Z,98760.09
2022-09-15T19:23:58.176Z,98761.56
2022-09-15T19:26:29.376Z,98762.44
2022-09-15T19:28:58.552Z,98767.84
2022-09-15T19:31:28.186Z,98765.97
2022-09-15T19:33:56.771Z,98779.13
2022-09-15T19:36:29.156Z,98776.28
2022-09-15T19:39:00.759Z,98760.94
2022-09-15T19:41:30.593Z,98772.19
2022-09-15T19:44:01.442Z,98781.19
2022-09-15T19:46:31.078Z,98772.47
2022-09-15T19:48:59.167Z,98768.38
2022-09-15T19:51:27.391Z,98765.53
2022-09-15T19:53:57.340Z,98772.41
2022-09-15T19:56:27.278Z,98765.75
2022-09-15T19:58:57.555Z,98779.75
2022-09-15T20:01:28.327Z,98773.31
2022-09-15T20:03:57.345Z,98777.75
2022-09-15T20:06:30.088Z,98767.50
2022-09-15T20:09:00.854Z,98772.53
2022-09-15T20:11:30.299Z,98778.75
2022-09-15T20:13:58.893Z,98783.06
2022-09-15T20:16:28.499Z,98781.84
2022-09-15T20:18:57.100Z,98781.47
2022-09-15T20:21:50.423Z,98777.69
2022-09-15T20:24:22.116Z,98776.72
2022-09-15T20:26:50.760Z,98785.56
2022-09-15T20:29:19.787Z,98792.06
2022-09-15T20:31:48.384Z,98799.13
2022-09-15T20:34:16.876Z,98786.88
2022-09-15T20:36:45.256Z,98797.16
2022-09-15T20:39:15.455Z,98803.38
2022-09-15T20:41:46.602Z,98799.69
2022-09-15T20:44:15.443Z,98796.37
2022-09-15T20:46:47.782Z,98800.69
2022-09-15T20:49:16.496Z,98801.06
2022-09-15T20:51:45.234Z,98799.03
2022-09-15T20:54:13.233Z,98795.94
2022-09-15T20:56:41.915Z,98809.16
2022-09-15T20:59:13.744Z,98813.06
2022-09-15T21:01:43.692Z,98822.31
2022-09-15T21:04:12.323Z,98822.53
2022-09-15T21:06:40.647Z,98827.22
2022-09-15T21:09:09.409Z,98823.94
2022-09-15T21:11:37.700Z,98826.13
2022-09-15T21:14:05.761Z,98835.87
2022-09-15T21:16:35.084Z,98835.47
2022-09-15T21:19:04.275Z,98838.50
2022-09-15T21:21:33.698Z,98842.13
2022-09-15T21:24:06.304Z,98840.69
2022-09-15T21:27:00.064Z,98832.06
2022-09-15T21:29:29.084Z,98842.13
2022-09-15T21:31:57.847Z,98833.06
2022-09-15T21:34:26.382Z,98844.19
2022-09-15T21:36:55.001Z,98842.00
2022-09-15T21:39:23.159Z,98826.78
2022-09-15T21:41:51.233Z,98825.84
2022-09-15T21:44:19.754Z,98826.22
2022-09-15T21:46:48.079Z,98834.75
2022-09-15T21:49:18.258Z,98833.06
2022-09-15T21:51:46.853Z,98843.69
2022-09-15T21:54:14.940Z,98837.44
2022-09-15T21:56:43.028Z,98851.41
2022-09-15T21:59:11.632Z,98859.72
2022-09-15T22:01:39.919Z,98868.62
2022-09-15T22:04:09.988Z,98868.84
2022-09-15T22:06:40.651Z,98879.78
2022-09-15T22:09:13.331Z,98882.41
2022-09-15T22:11:41.861Z,98892.09
2022-09-15T22:14:11.897Z,98901.47
2022-09-15T22:16:42.043Z,98911.44
2022-09-15T22:19:11.742Z,98914.88
2022-09-15T22:21:42.046Z,98919.31
2022-09-15T22:24:13.205Z,98934.47
2022-09-15T22:26:43.519Z,98934.06
2022-09-15T22:29:12.304Z,98926.78
2022-09-15T22:31:42.050Z,98920.56
2022-09-15T22:34:10.347Z,98915.91
2022-09-15T22:36:38.691Z,98931.06
2022-09-15T22:39:07.277Z,98915.28
2022-09-15T22:41:37.537Z,98926.25
2022-09-15T22:44:07.966Z,98920.97
2022-09-15T22:46:36.237Z,98925.66
2022-09-15T22:49:04.303Z,98928.72
2022-09-15T22:51:32.681Z,98932.38
2022-09-15T22:54:03.355Z,98947.38
2022-09-15T22:56:31.531Z,98954.25
2022-09-15T22:59:00.780Z,98954.59
2022-09-15T23:01:30.995Z,98966.06
2022-09-15T23:04:01.876Z,98974.41
2022-09-15T23:06:32.475Z,98976.62
2022-09-15T23:09:04.162Z,98975.59
2022-09-15T23:11:33.478Z,98978.03
2022-09-15T23:14:02.623Z,98984.47
2022-09-15T23:16:31.102Z,98982.69
2022-09-15T23:18:59.803Z,98990.59
2022-09-15T23:21:28.578Z,98982.53
2022-09-15T23:23:56.975Z,98991.03
2022-09-15T23:26:26.852Z,98995.44
2022-09-15T23:28:55.371Z,98998.88
2022-09-15T23:31:23.705Z,98998.06
2022-09-15T23:33:52.258Z,98986.91
2022-09-15T23:36:20.612Z,98996.69
2022-09-15T23:38:49.601Z,98999.50
2022-09-15T23:41:18.728Z,99005.22
2022-09-15T23:43:47.502Z,99014.72
2022-09-15T23:46:16.263Z,99016.38
2022-09-15T23:48:45.143Z,99022.06
2022-09-15T23:51:14.311Z,99020.81
2022-09-15T23:53:42.645Z,99011.72
2022-09-15T23:56:11.049Z,99025.84
2022-09-15T23:58:39.657Z,99018.19
